createdAt,value
2022-10-29T00:05:12.957Z,16.20
2022-10-29T00:11:08.139Z,11.93
2022-10-29T00:17:02.853Z,14.70
2022-10-29T00:22:56.027Z,13.77
2022-10-29T00:28:49.300Z,10.77
2022-10-29T00:34:43.853Z,15.03
2022-10-29T00:40:38.723Z,13.77
2022-10-29T00:46:35.435Z,8.47
2022-10-29T00:52:33.691Z,9.13
2022-10-29T00:58:27.598Z,10.43
2022-10-29T01:04:22.037Z,7.60
2022-10-29T01:10:18.120Z,12.20
2022-10-29T01:16:20.737Z,12.20
2022-10-29T01:22:21.120Z,13.83
2022-10-29T01:34:29.968Z,13.40
2022-10-29T01:40:27.329Z,14.50
2022-10-29T01:46:24.155Z,11.87
2022-10-29T01:52:21.514Z,16.00
2022-10-29T02:04:31.186Z,11.50
2022-10-29T02:10:32.832Z,8.43
2022-10-29T02:16:27.362Z,11.20
2022-10-29T02:22:20.203Z,7.80
2022-10-29T02:28:14.841Z,16.13
2022-10-29T02:34:07.765Z,10.40
2022-10-29T02:40:00.990Z,14.27
2022-10-29T02:46:17.015Z,11.70
2022-10-29T02:52:10.049Z,14.00
2022-10-29T02:58:03.283Z,15.27
2022-10-29T03:03:57.895Z,11.50
2022-10-29T03:09:51.358Z,13.17
2022-10-29T03:15:46.077Z,11.23
2022-10-29T03:21:40.734Z,12.30
2022-10-29T03:27:34.001Z,12.80
2022-10-29T03:33:28.024Z,9.93
2022-10-29T03:39:22.603Z,17.80
2022-10-29T03:45:16.047Z,12.77
2022-10-29T03:51:09.164Z,14.67
2022-10-29T03:57:03.742Z,15.40
2022-10-29T04:02:57.487Z,18.97
2022-10-29T04:08:51.016Z,16.47
2022-10-29T04:14:46.101Z,13.13
2022-10-29T04:21:18.601Z,10.97
2022-10-29T04:33:09.937Z,12.10
2022-10-29T04:39:03.369Z,14.80
2022-10-29T04:44:56.734Z,12.10
2022-10-29T04:50:51.304Z,12.50
2022-10-29T04:56:44.529Z,11.20
2022-10-29T05:02:37.822Z,13.50
2022-10-29T05:08:32.777Z,15.10
2022-10-29T05:14:25.995Z,14.43
2022-10-29T05:20:19.263Z,19.73
2022-10-29T05:26:13.821Z,15.53
2022-10-29T05:32:06.850Z,16.00
2022-10-29T05:38:00.681Z,16.07
2022-10-29T05:43:56.272Z,13.87
2022-10-29T05:49:49.498Z,14.20
2022-10-29T05:55:43.640Z,14.10
2022-10-29T06:01:38.338Z,12.77
2022-10-29T06:07:31.701Z,17.03
2022-10-29T06:13:24.945Z,17.13
2022-10-29T06:19:19.519Z,18.57
2022-10-29T06:25:12.829Z,10.90
2022-10-29T06:31:06.361Z,13.23
2022-10-29T06:37:00.563Z,14.23
2022-10-29T06:43:00.911Z,12.00
2022-10-29T06:48:54.192Z,13.10
2022-10-29T06:54:48.787Z,11.87
2022-10-29T07:00:42.761Z,11.67
2022-10-29T07:06:36.471Z,9.50
2022-10-29T07:12:31.070Z,15.00
2022-10-29T07:18:24.348Z,9.00
2022-10-29T07:24:18.061Z,7.33
2022-10-29T07:30:13.395Z,9.33
2022-10-29T07:36:07.069Z,8.87
2022-10-29T07:42:00.379Z,14.00
2022-10-29T07:48:03.080Z,13.20
2022-10-29T07:53:57.069Z,12.33
2022-10-29T07:59:50.631Z,19.23
2022-10-29T08:05:46.159Z,15.70
2022-10-29T08:11:40.020Z,14.80
2022-10-29T08:17:33.088Z,10.60
2022-10-29T08:23:33.656Z,13.40
2022-10-29T08:29:28.427Z,10.80
2022-10-29T08:35:21.699Z,16.77
2022-10-29T08:41:31.359Z,14.63
2022-10-29T08:47:25.440Z,14.27
2022-10-29T08:53:23.614Z,13.73
2022-10-29T08:59:22.120Z,20.53
2022-10-29T09:05:16.585Z,17.80
2022-10-29T09:11:22.965Z,18.00
2022-10-29T09:17:27.660Z,26.13
2022-10-29T09:23:31.717Z,26.50
2022-10-29T09:29:46.336Z,24.07
2022-10-29T09:35:45.742Z,25.57
2022-10-29T09:41:39.841Z,25.87
2022-10-29T09:47:44.355Z,29.23
2022-10-29T09:53:39.091Z,26.27
2022-10-29T09:59:36.749Z,26.20
2022-10-29T10:05:31.936Z,19.40
2022-10-29T10:11:28.915Z,22.47
2022-10-29T10:17:22.194Z,21.03
2022-10-29T10:23:23.278Z,21.13
2022-10-29T10:29:21.354Z,21.07
2022-10-29T10:35:32.123Z,25.03
2022-10-29T10:41:28.772Z,19.10
2022-10-29T10:47:27.253Z,23.37
2022-10-29T10:53:22.765Z,21.17
2022-10-29T10:59:18.677Z,23.93
2022-10-29T11:05:19.371Z,26.70
2022-10-29T11:11:17.431Z,22.67
2022-10-29T11:17:26.539Z,17.43
2022-10-29T11:23:32.497Z,23.13
2022-10-29T11:29:33.109Z,24.97
2022-10-29T11:35:38.462Z,18.10
2022-10-29T11:41:39.700Z,28.43
2022-10-29T11:47:45.852Z,20.27
2022-10-29T11:53:55.928Z,23.60
2022-10-29T12:00:14.255Z,16.93
2022-10-29T12:06:15.844Z,20.07
2022-10-29T12:12:14.209Z,20.53
2022-10-29T12:18:23.501Z,23.57
2022-10-29T12:24:32.283Z,16.73
2022-10-29T12:30:26.389Z,21.33
2022-10-29T12:37:13.815Z,16.50
2022-10-29T12:43:15.006Z,19.70
2022-10-29T12:49:13.325Z,15.00
2022-10-29T12:55:09.065Z,15.87
2022-10-29T13:01:03.842Z,19.10
2022-10-29T13:07:24.339Z,10.33
2022-10-29T13:13:26.342Z,17.40
2022-10-29T13:19:37.252Z,14.30
2022-10-29T13:25:52.031Z,13.80
2022-10-29T13:31:49.413Z,15.07
2022-10-29T13:38:16.399Z,9.07
2022-10-29T13:44:13.195Z,22.67
2022-10-29T13:50:07.900Z,12.63
2022-10-29T13:56:03.128Z,10.10
2022-10-29T14:02:04.197Z,10.53
2022-10-29T14:08:02.384Z,6.70
2022-10-29T14:14:00.511Z,9.03
2022-10-29T14:19:54.476Z,12.60
2022-10-29T14:25:52.863Z,12.13
2022-10-29T14:31:47.672Z,18.93
2022-10-29T14:38:32.111Z,13.27
2022-10-29T14:44:35.141Z,11.47
2022-10-29T14:50:37.463Z,13.00
2022-10-29T14:56:36.753Z,12.00
2022-10-29T15:02:38.686Z,12.93
2022-10-29T15:08:40.231Z,15.17
2022-10-29T15:14:38.060Z,18.67
2022-10-29T15:20:36.630Z,15.87
2022-10-29T15:26:31.643Z,11.77
2022-10-29T15:32:27.413Z,9.87
2022-10-29T15:39:14.025Z,17.50
2022-10-29T15:45:24.309Z,12.67
2022-10-29T15:51:17.978Z,12.83
2022-10-29T15:57:13.860Z,9.20
2022-10-29T16:03:16.333Z,12.47
2022-10-29T16:09:19.094Z,10.40
2022-10-29T16:15:17.402Z,13.20
2022-10-29T16:21:15.581Z,13.00
2022-10-29T16:27:14.577Z,12.00
2022-10-29T16:33:07.963Z,15.23
2022-10-29T16:39:02.541Z,9.53
2022-10-29T16:44:55.804Z,11.17
2022-10-29T16:50:49.086Z,11.73
2022-10-29T16:56:43.647Z,10.47
2022-10-29T17:02:37.842Z,10.93
2022-10-29T17:08:33.160Z,12.53
2022-10-29T17:14:27.794Z,13.23
2022-10-29T17:20:21.163Z,12.50
2022-10-29T17:26:14.030Z,12.47
2022-10-29T17:32:09.433Z,16.47
2022-10-29T17:38:02.787Z,11.73
2022-10-29T17:43:56.018Z,16.00
2022-10-29T17:49:50.600Z,19.13
2022-10-29T17:55:43.863Z,19.43
2022-10-29T18:01:37.157Z,17.73
2022-10-29T18:07:31.461Z,18.17
2022-10-29T18:13:24.916Z,13.83
2022-10-29T18:19:18.246Z,14.33
2022-10-29T18:25:13.265Z,16.20
2022-10-29T18:31:06.769Z,13.93
2022-10-29T18:37:00.013Z,10.70
2022-10-29T18:42:54.611Z,12.57
2022-10-29T18:48:49.335Z,13.57
2022-10-29T18:54:42.584Z,12.60
2022-10-29T19:00:36.825Z,14.20
2022-10-29T19:06:32.653Z,14.43
2022-10-29T19:12:25.901Z,12.70
2022-10-29T19:18:20.521Z,13.17
2022-10-29T19:24:15.212Z,16.60
2022-10-29T19:30:09.784Z,17.37
2022-10-29T19:36:05.293Z,17.13
2022-10-29T19:41:58.530Z,15.53
2022-10-29T19:47:51.771Z,13.00
2022-10-29T19:53:46.437Z,15.50
2022-10-29T19:59:39.698Z,13.20
2022-10-29T20:11:28.470Z,14.80
2022-10-29T20:17:21.365Z,15.23
2022-10-29T20:23:14.650Z,14.17
2022-10-29T20:29:09.219Z,14.90
2022-10-29T20:35:02.448Z,15.53
2022-10-29T20:40:55.290Z,14.80
2022-10-29T20:46:49.961Z,15.43
2022-10-29T20:52:48.085Z,19.87
2022-10-29T20:58:42.069Z,19.17
2022-10-29T21:04:36.660Z,17.10
2022-10-29T21:10:29.527Z,14.50
2022-10-29T21:16:24.490Z,14.13
2022-10-29T21:22:19.383Z,14.70
2022-10-29T21:28:12.978Z,16.83
2022-10-29T21:34:06.608Z,15.27
2022-10-29T21:40:05.020Z,17.60
2022-10-29T21:45:59.892Z,15.07
2022-10-29T21:51:53.536Z,17.33
2022-10-29T21:57:48.106Z,19.00
2022-10-29T22:03:42.847Z,22.93
2022-10-29T22:09:36.049Z,20.33
2022-10-29T22:15:30.768Z,20.20
2022-10-29T22:21:25.684Z,18.40
2022-10-29T22:27:18.657Z,22.00
2022-10-29T22:33:13.818Z,16.47
2022-10-29T22:39:07.107Z,17.00
2022-10-29T22:45:00.383Z,17.00
2022-10-29T22:51:02.555Z,13.33
2022-10-29T22:56:55.791Z,13.07
2022-10-29T23:02:49.070Z,12.73
2022-10-29T23:08:44.571Z,14.63
2022-10-29T23:14:38.040Z,12.80
2022-10-29T23:20:31.214Z,13.87
2022-10-29T23:26:27.486Z,16.00
2022-10-29T23:32:20.746Z,15.93
2022-10-29T23:38:13.984Z,14.17
2022-10-29T23:44:08.535Z,12.70
2022-10-29T23:50:01.781Z,12.37
2022-10-29T23:55:55.037Z,10.47
